sensor_id;sensor_type;location;lat;lon;timestamp;temperature;humidity
65637;DHT22;52327;42.622;23.316;2023-04-15T14:14:14;24.05;23.91
65637;DHT22;52327;42.622;23.316;2023-04-15T14:16:40;24.82;22.85
65637;DHT22;52327;42.622;23.316;2023-04-15T14:19:05;25.27;21.82
65637;DHT22;52327;42.622;23.316;2023-04-15T14:21:30;24.70;20.94
65637;DHT22;52327;42.622;23.316;2023-04-15T14:23:57;22.84;23.18
65637;DHT22;52327;42.622;23.316;2023-04-15T14:26:22;22.20;24.68
65637;DHT22;52327;42.622;23.316;2023-04-15T14:28:48;22.41;25.39
65637;DHT22;52327;42.622;23.316;2023-04-15T14:31:14;23.12;23.99
65637;DHT22;52327;42.622;23.316;2023-04-15T14:33:39;23.45;23.24
65637;DHT22;52327;42.622;23.316;2023-04-15T14:36:06;23.58;24.26
65637;DHT22;52327;42.622;23.316;2023-04-15T14:38:35;24.90;21.83
65637;DHT22;52327;42.622;23.316;2023-04-15T14:41:06;25.09;21.44
65637;DHT22;52327;42.622;23.316;2023-04-15T14:43:35;26.01;21.90
65637;DHT22;52327;42.622;23.316;2023-04-15T14:46:00;26.32;21.10
65637;DHT22;52327;42.622;23.316;2023-04-15T14:48:26;25.96;21.70
65637;DHT22;52327;42.622;23.316;2023-04-15T14:50:52;24.62;22.32
65637;DHT22;52327;42.622;23.316;2023-04-15T14:53:17;23.68;23.15
65637;DHT22;52327;42.622;23.316;2023-04-15T14:55:43;23.05;23.72
65637;DHT22;52327;42.622;23.316;2023-04-15T14:58:09;22.30;24.34
65637;DHT22;52327;42.622;23.316;2023-04-15T15:00:36;22.00;25.24
65637;DHT22;52327;42.622;23.316;2023-04-15T15:03:04;21.65;26.62
65637;DHT22;52327;42.622;23.316;2023-04-15T15:05:37;21.76;25.49
65637;DHT22;52327;42.622;23.316;2023-04-15T15:08:02;21.73;26.28
65637;DHT22;52327;42.622;23.316;2023-04-15T15:10:28;21.63;26.37
65637;DHT22;52327;42.622;23.316;2023-04-15T15:12:53;21.31;26.44
65637;DHT22;52327;42.622;23.316;2023-04-15T15:15:18;20.84;27.19
65637;DHT22;52327;42.622;23.316;2023-04-15T15:17:44;20.65;26.88
65637;DHT22;52327;42.622;23.316;2023-04-15T15:20:10;20.60;27.45
65637;DHT22;52327;42.622;23.316;2023-04-15T15:22:35;20.67;27.82
65637;DHT22;52327;42.622;23.316;2023-04-15T15:25:00;20.75;26.75
65637;DHT22;52327;42.622;23.316;2023-04-15T15:27:26;20.95;26.81
65637;DHT22;52327;42.622;23.316;2023-04-15T15:29:51;20.70;26.88
65637;DHT22;52327;42.622;23.316;2023-04-15T15:32:17;20.29;27.44
65637;DHT22;52327;42.622;23.316;2023-04-15T15:34:42;20.00;28.36
65637;DHT22;52327;42.622;23.316;2023-04-15T15:37:08;20.14;28.31
65637;DHT22;52327;42.622;23.316;2023-04-15T15:39:34;20.70;26.85
65637;DHT22;52327;42.622;23.316;2023-04-15T15:41:59;21.22;26.26
65637;DHT22;52327;42.622;23.316;2023-04-15T15:44:25;21.55;26.11
65637;DHT22;52327;42.622;23.316;2023-04-15T15:46:50;20.32;27.76
65637;DHT22;52327;42.622;23.316;2023-04-15T15:49:16;19.73;28.62
65637;DHT22;52327;42.622;23.316;2023-04-15T15:51:41;19.10;28.74
65637;DHT22;52327;42.622;23.316;2023-04-15T15:54:06;18.89;29.51
65637;DHT22;52327;42.622;23.316;2023-04-15T15:56:32;18.80;30.03
65637;DHT22;52327;42.622;23.316;2023-04-15T15:58:59;18.43;30.48
65637;DHT22;52327;42.622;23.316;2023-04-15T16:01:24;18.24;30.69
65637;DHT22;52327;42.622;23.316;2023-04-15T16:03:49;17.92;31.85
65637;DHT22;52327;42.622;23.316;2023-04-15T16:06:15;17.77;31.69
65637;DHT22;52327;42.622;23.316;2023-04-15T16:08:40;17.48;31.61
65637;DHT22;52327;42.622;23.316;2023-04-15T16:11:06;17.37;31.86
65637;DHT22;52327;42.622;23.316;2023-04-15T16:13:31;17.23;32.33
65637;DHT22;52327;42.622;23.316;2023-04-15T16:15:57;17.07;32.36
65637;DHT22;52327;42.622;23.316;2023-04-15T16:18:22;16.92;33.17
65637;DHT22;52327;42.622;23.316;2023-04-15T16:20:47;16.61;32.51
65637;DHT22;52327;42.622;23.316;2023-04-15T16:23:14;16.42;33.27
65637;DHT22;52327;42.622;23.316;2023-04-15T16:25:41;16.24;33.78
65637;DHT22;52327;42.622;23.316;2023-04-15T16:28:07;16.14;34.16
65637;DHT22;52327;42.622;23.316;2023-04-15T16:30:39;16.08;34.19
65637;DHT22;52327;42.622;23.316;2023-04-15T16:33:05;15.94;33.96
65637;DHT22;52327;42.622;23.316;2023-04-15T16:35:31;15.91;34.27
65637;DHT22;52327;42.622;23.316;2023-04-15T16:37:57;15.73;34.96
65637;DHT22;52327;42.622;23.316;2023-04-15T16:40:23;15.70;34.96
65637;DHT22;52327;42.622;23.316;2023-04-15T16:42:49;15.56;35.27
65637;DHT22;52327;42.622;23.316;2023-04-15T16:45:15;15.44;35.28
65637;DHT22;52327;42.622;23.316;2023-04-15T16:47:41;15.39;35.46
65637;DHT22;52327;42.622;23.316;2023-04-15T16:50:07;15.19;35.62
65637;DHT22;52327;42.622;23.316;2023-04-15T16:52:32;15.21;36.03
65637;DHT22;52327;42.622;23.316;2023-04-15T16:54:58;15.16;36.52
65637;DHT22;52327;42.622;23.316;2023-04-15T16:57:23;15.06;35.84
65637;DHT22;52327;42.622;23.316;2023-04-15T16:59:48;15.03;36.23
65637;DHT22;52327;42.622;23.316;2023-04-15T17:02:14;14.96;36.72
65637;DHT22;52327;42.622;23.316;2023-04-15T17:04:39;14.91;36.96
65637;DHT22;52327;42.622;23.316;2023-04-15T17:07:06;14.93;35.73
65637;DHT22;52327;42.622;23.316;2023-04-15T17:09:33;14.87;36.68
65637;DHT22;52327;42.622;23.316;2023-04-15T17:11:58;14.65;36.98
65637;DHT22;52327;42.622;23.316;2023-04-15T17:14:24;14.45;37.40
65637;DHT22;52327;42.622;23.316;2023-04-15T17:16:49;14.26;37.21
65637;DHT22;52327;42.622;23.316;2023-04-15T17:19:15;14.14;37.86
65637;DHT22;52327;42.622;23.316;2023-04-15T17:21:40;14.08;38.81
65637;DHT22;52327;42.622;23.316;2023-04-15T17:24:06;14.00;38.42
65637;DHT22;52327;42.622;23.316;2023-04-15T17:26:31;13.93;39.18
65637;DHT22;52327;42.622;23.316;2023-04-15T17:28:57;13.87;39.58
65637;DHT22;52327;42.622;23.316;2023-04-15T17:31:22;13.85;39.95
65637;DHT22;52327;42.622;23.316;2023-04-15T17:33:48;13.85;40.00
65637;DHT22;52327;42.622;23.316;2023-04-15T17:36:13;13.70;40.44
65637;DHT22;52327;42.622;23.316;2023-04-15T17:38:39;13.73;39.28
65637;DHT22;52327;42.622;23.316;2023-04-15T17:41:04;13.79;39.73
65637;DHT22;52327;42.622;23.316;2023-04-15T17:43:32;13.58;40.74
65637;DHT22;52327;42.622;23.316;2023-04-15T17:45:57;13.44;40.81
65637;DHT22;52327;42.622;23.316;2023-04-15T17:48:24;13.39;41.15
65637;DHT22;52327;42.622;23.316;2023-04-15T17:50:49;13.44;40.41
65637;DHT22;52327;42.622;23.316;2023-04-15T17:53:15;13.31;43.23
65637;DHT22;52327;42.622;23.316;2023-04-15T17:55:40;13.08;43.60
65637;DHT22;52327;42.622;23.316;2023-04-15T17:58:06;12.93;43.27
65637;DHT22;52327;42.622;23.316;2023-04-15T18:00:31;12.96;43.93
65637;DHT22;52327;42.622;23.316;2023-04-15T18:02:56;13.06;43.28
65637;DHT22;52327;42.622;23.316;2023-04-15T18:05:22;13.01;43.65
65637;DHT22;52327;42.622;23.316;2023-04-15T18:07:50;12.93;43.85
65637;DHT22;52327;42.622;23.316;2023-04-15T18:10:16;12.81;44.20
65637;DHT22;52327;42.622;23.316;2023-04-15T18:12:41;12.76;44.21
65637;DHT22;52327;42.622;23.316;2023-04-15T18:15:07;12.64;45.56
65637;DHT22;52327;42.622;23.316;2023-04-15T18:17:34;12.59;44.89
65637;DHT22;52327;42.622;23.316;2023-04-15T18:19:59;12.55;44.14
65637;DHT22;52327;42.622;23.316;2023-04-15T18:22:27;12.47;44.79
65637;DHT22;52327;42.622;23.316;2023-04-15T18:24:52;12.40;44.40
65637;DHT22;52327;42.622;23.316;2023-04-15T18:27:19;12.26;45.36
65637;DHT22;52327;42.622;23.316;2023-04-15T18:29:44;12.28;45.26
65637;DHT22;52327;42.622;23.316;2023-04-15T18:32:10;12.12;44.94
65637;DHT22;52327;42.622;23.316;2023-04-15T18:34:35;12.14;45.42
65637;DHT22;52327;42.622;23.316;2023-04-15T18:37:02;12.16;45.11
65637;DHT22;52327;42.622;23.316;2023-04-15T18:39:29;12.24;44.46
65637;DHT22;52327;42.622;23.316;2023-04-15T18:41:55;12.26;44.76
65637;DHT22;52327;42.622;23.316;2023-04-15T18:44:21;12.19;43.54
65637;DHT22;52327;42.622;23.316;2023-04-15T18:46:47;12.14;45.06
65637;DHT22;52327;42.622;23.316;2023-04-15T18:49:13;12.28;44.53
65637;DHT22;52327;42.622;23.316;2023-04-15T18:51:38;12.15;45.54
65637;DHT22;52327;42.622;23.316;2023-04-15T18:54:04;12.11;46.14
65637;DHT22;52327;42.622;23.316;2023-04-15T18:56:30;12.06;45.04
65637;DHT22;52327;42.622;23.316;2023-04-15T18:58:56;11.99;46.19
65637;DHT22;52327;42.622;23.316;2023-04-15T19:01:22;11.95;46.73
65637;DHT22;52327;42.622;23.316;2023-04-15T19:03:47;11.88;46.55
65637;DHT22;52327;42.622;23.316;2023-04-15T19:06:12;11.78;47.38
65637;DHT22;52327;42.622;23.316;2023-04-15T19:08:38;11.91;46.31
65637;DHT22;52327;42.622;23.316;2023-04-15T19:11:03;11.92;46.47
65637;DHT22;52327;42.622;23.316;2023-04-15T19:13:29;11.85;45.82
65637;DHT22;52327;42.622;23.316;2023-04-15T19:15:54;11.82;45.09
65637;DHT22;52327;42.622;23.316;2023-04-15T19:18:20;11.86;45.28
65637;DHT22;52327;42.622;23.316;2023-04-15T19:20:46;11.89;45.24
65637;DHT22;52327;42.622;23.316;2023-04-15T19:23:12;11.84;45.29
65637;DHT22;52327;42.622;23.316;2023-04-15T19:25:37;11.78;45.52
65637;DHT22;52327;42.622;23.316;2023-04-15T19:28:02;11.75;45.66
65637;DHT22;52327;42.622;23.316;2023-04-15T19:30:28;11.84;44.70
65637;DHT22;52327;42.622;23.316;2023-04-15T19:32:56;11.86;45.21
65637;DHT22;52327;42.622;23.316;2023-04-15T19:35:21;11.94;44.58
65637;DHT22;52327;42.622;23.316;2023-04-15T19:37:47;11.91;44.93
65637;DHT22;52327;42.622;23.316;2023-04-15T19:40:13;11.86;45.28
65637;DHT22;52327;42.622;23.316;2023-04-15T19:42:38;11.95;45.83
65637;DHT22;52327;42.622;23.316;2023-04-15T19:45:04;12.09;45.33
65637;DHT22;52327;42.622;23.316;2023-04-15T19:47:29;12.04;44.63
65637;DHT22;52327;42.622;23.316;2023-04-15T19:49:55;11.96;44.47
65637;DHT22;52327;42.622;23.316;2023-04-15T19:52:20;11.86;43.15
65637;DHT22;52327;42.622;23.316;2023-04-15T19:54:46;11.86;43.71
65637;DHT22;52327;42.622;23.316;2023-04-15T19:57:12;11.98;44.06
65637;DHT22;52327;42.622;23.316;2023-04-15T19:59:37;12.21;44.17
65637;DHT22;52327;42.622;23.316;2023-04-15T20:02:02;12.35;44.58
65637;DHT22;52327;42.622;23.316;2023-04-15T20:04:28;12.24;46.68
65637;DHT22;52327;42.622;23.316;2023-04-15T20:06:53;12.24;46.14
65637;DHT22;52327;42.622;23.316;2023-04-15T20:09:19;11.99;46.21
65637;DHT22;52327;42.622;23.316;2023-04-15T20:11:45;11.77;47.94
65637;DHT22;52327;42.622;23.316;2023-04-15T20:14:10;11.75;45.42
65637;DHT22;52327;42.622;23.316;2023-04-15T20:16:36;11.64;47.10
65637;DHT22;52327;42.622;23.316;2023-04-15T20:19:02;11.63;47.38
65637;DHT22;52327;42.622;23.316;2023-04-15T20:21:34;11.53;48.77
65637;DHT22;52327;42.622;23.316;2023-04-15T20:23:59;11.40;48.82
65637;DHT22;52327;42.622;23.316;2023-04-15T20:26:25;11.36;50.75
65637;DHT22;52327;42.622;23.316;2023-04-15T20:28:50;11.36;51.14
65637;DHT22;52327;42.622;23.316;2023-04-15T20:31:15;11.43;50.07
65637;DHT22;52327;42.622;23.316;2023-04-15T20:33:41;11.45;50.21
65637;DHT22;52327;42.622;23.316;2023-04-15T20:36:06;11.58;47.92
65637;DHT22;52327;42.622;23.316;2023-04-15T20:38:32;11.55;48.76
65637;DHT22;52327;42.622;23.316;2023-04-15T20:40:57;11.55;49.33
65637;DHT22;52327;42.622;23.316;2023-04-15T20:43:23;11.61;49.50
65637;DHT22;52327;42.622;23.316;2023-04-15T20:45:49;11.67;49.29
65637;DHT22;52327;42.622;23.316;2023-04-15T20:48:15;11.70;49.72
65637;DHT22;52327;42.622;23.316;2023-04-15T20:50:40;11.71;49.02
65637;DHT22;52327;42.622;23.316;2023-04-15T20:53:05;11.65;49.65
65637;DHT22;52327;42.622;23.316;2023-04-15T20:55:31;11.61;50.07
65637;DHT22;52327;42.622;23.316;2023-04-15T20:57:57;11.64;50.64
65637;DHT22;52327;42.622;23.316;2023-04-15T21:00:23;11.70;50.80
65637;DHT22;52327;42.622;23.316;2023-04-15T21:02:48;11.64;51.14
65637;DHT22;52327;42.622;23.316;2023-04-15T21:05:13;11.47;51.10
65637;DHT22;52327;42.622;23.316;2023-04-15T21:07:39;11.40;51.68
65637;DHT22;52327;42.622;23.316;2023-04-15T21:10:05;11.26;50.84
65637;DHT22;52327;42.622;23.316;2023-04-15T21:12:31;11.20;50.46
65637;DHT22;52327;42.622;23.316;2023-04-15T21:14:56;11.23;51.07
65637;DHT22;52327;42.622;23.316;2023-04-15T21:17:22;11.34;50.09
65637;DHT22;52327;42.622;23.316;2023-04-15T21:19:47;11.37;51.76
65637;DHT22;52327;42.622;23.316;2023-04-15T21:22:13;11.43;50.66
65637;DHT22;52327;42.622;23.316;2023-04-15T21:24:38;11.50;50.63
65637;DHT22;52327;42.622;23.316;2023-04-15T21:27:03;11.55;50.43
65637;DHT22;52327;42.622;23.316;2023-04-15T21:29:29;11.58;51.21
65637;DHT22;52327;42.622;23.316;2023-04-15T21:31:54;11.44;51.71
65637;DHT22;52327;42.622;23.316;2023-04-15T21:34:20;11.54;51.13
65637;DHT22;52327;42.622;23.316;2023-04-15T21:36:45;11.64;51.02
65637;DHT22;52327;42.622;23.316;2023-04-15T21:39:11;11.55;49.49
65637;DHT22;52327;42.622;23.316;2023-04-15T21:41:36;11.54;50.44
65637;DHT22;52327;42.622;23.316;2023-04-15T21:44:02;11.54;51.66
65637;DHT22;52327;42.622;23.316;2023-04-15T21:46:28;11.47;51.18
65637;DHT22;52327;42.622;23.316;2023-04-15T21:48:53;11.53;50.81
65637;DHT22;52327;42.622;23.316;2023-04-15T21:51:19;11.58;52.23
65637;DHT22;52327;42.622;23.316;2023-04-15T21:53:44;11.60;50.69
65637;DHT22;52327;42.622;23.316;2023-04-15T21:56:10;11.82;48.07
65637;DHT22;52327;42.622;23.316;2023-04-15T21:58:36;11.81;48.70
65637;DHT22;52327;42.622;23.316;2023-04-15T22:01:02;11.85;49.48
65637;DHT22;52327;42.622;23.316;2023-04-15T22:03:29;11.68;49.92
65637;DHT22;52327;42.622;23.316;2023-04-15T22:06:00;11.68;50.40
65637;DHT22;52327;42.622;23.316;2023-04-15T22:08:26;11.67;51.04
65637;DHT22;52327;42.622;23.316;2023-04-15T22:10:51;11.74;51.25
65637;DHT22;52327;42.622;23.316;2023-04-15T22:13:17;11.70;51.67
65637;DHT22;52327;42.622;23.316;2023-04-15T22:15:42;11.63;53.08
65637;DHT22;52327;42.622;23.316;2023-04-15T22:18:07;11.70;53.04
65637;DHT22;52327;42.622;23.316;2023-04-15T22:20:33;11.61;54.22
65637;DHT22;52327;42.622;23.316;2023-04-15T22:22:58;11.61;54.04
65637;DHT22;52327;42.622;23.316;2023-04-15T22:25:24;11.63;53.57
65637;DHT22;52327;42.622;23.316;2023-04-15T22:27:50;11.48;54.63
65637;DHT22;52327;42.622;23.316;2023-04-15T22:30:15;11.31;55.11
65637;DHT22;52327;42.622;23.316;2023-04-15T22:32:41;11.34;55.14
65637;DHT22;52327;42.622;23.316;2023-04-15T22:35:07;11.50;53.59
65637;DHT22;52327;42.622;23.316;2023-04-15T22:37:33;11.60;52.62
65637;DHT22;52327;42.622;23.316;2023-04-15T22:39:58;11.60;52.49
65637;DHT22;52327;42.622;23.316;2023-04-15T22:42:24;11.27;54.06
65637;DHT22;52327;42.622;23.316;2023-04-15T22:44:50;11.10;54.99
65637;DHT22;52327;42.622;23.316;2023-04-15T22:47:16;11.14;54.20
65637;DHT22;52327;42.622;23.316;2023-04-15T22:49:41;11.00;55.26
65637;DHT22;52327;42.622;23.316;2023-04-15T22:52:09;10.85;55.57
65637;DHT22;52327;42.622;23.316;2023-04-15T22:54:34;10.75;55.96
65637;DHT22;52327;42.622;23.316;2023-04-15T22:57:00;10.58;55.34
65637;DHT22;52327;42.622;23.316;2023-04-15T22:59:26;10.53;55.15
65637;DHT22;52327;42.622;23.316;2023-04-15T23:01:51;10.48;54.82
65637;DHT22;52327;42.622;23.316;2023-04-15T23:04:17;10.51;54.79
65637;DHT22;52327;42.622;23.316;2023-04-15T23:06:42;10.41;55.22
65637;DHT22;52327;42.622;23.316;2023-04-15T23:09:08;10.45;54.27
65637;DHT22;52327;42.622;23.316;2023-04-15T23:11:33;10.40;54.58
65637;DHT22;52327;42.622;23.316;2023-04-15T23:13:58;10.32;54.78
65637;DHT22;52327;42.622;23.316;2023-04-15T23:16:24;10.25;54.94
65637;DHT22;52327;42.622;23.316;2023-04-15T23:18:50;10.30;54.88
65637;DHT22;52327;42.622;23.316;2023-04-15T23:21:15;10.34;54.53
65637;DHT22;52327;42.622;23.316;2023-04-15T23:23:41;10.24;55.29
65637;DHT22;52327;42.622;23.316;2023-04-15T23:26:06;10.27;55.32
65637;DHT22;52327;42.622;23.316;2023-04-15T23:28:32;10.42;54.44
65637;DHT22;52327;42.622;23.316;2023-04-15T23:30:57;10.44;54.83
65637;DHT22;52327;42.622;23.316;2023-04-15T23:33:23;10.44;54.99
65637;DHT22;52327;42.622;23.316;2023-04-15T23:35:48;10.44;55.86
65637;DHT22;52327;42.622;23.316;2023-04-15T23:38:14;10.40;56.28
65637;DHT22;52327;42.622;23.316;2023-04-15T23:40:39;10.34;57.21
65637;DHT22;52327;42.622;23.316;2023-04-15T23:43:05;10.32;56.65
65637;DHT22;52327;42.622;23.316;2023-04-15T23:45:30;10.21;57.65
65637;DHT22;52327;42.622;23.316;2023-04-15T23:47:56;10.10;57.64
65637;DHT22;52327;42.622;23.316;2023-04-15T23:50:21;10.11;58.15
65637;DHT22;52327;42.622;23.316;2023-04-15T23:52:47;10.12;58.56
65637;DHT22;52327;42.622;23.316;2023-04-15T23:55:12;10.12;58.72
65637;DHT22;52327;42.622;23.316;2023-04-15T23:57:38;10.24;58.27
